Time;durP1;ratioP1;P1;durP2;ratioP2;P2;SDS_P1;SDS_P2;PMS_P1;PMS_P2;Temp;Humidity;BMP_temperature;BMP_pressure;BME280_temperature;BME280_humidity;BME280_pressure;Samples;Min_cycle;Max_cycle;Signal;HPM_P1;HPM_P2
2022/09/18 00:01:49;;;;;;;12.23;2.40;;;9.00;99.90;;;;;;2584990;54;20783;31
2022/09/18 00:04:22;;;;;;;8.25;2.33;;;9.20;99.90;;;;;;2603397;46;20814;31
2022/09/18 00:06:54;;;;;;;10.80;3.45;;;9.20;99.90;;;;;;2585118;54;21996;31
2022/09/18 00:09:28;;;;;;;13.80;3.67;;;9.10;99.90;;;;;;2585098;54;19958;31
2022/09/18 00:12:01;;;;;;;17.20;5.35;;;9.10;99.90;;;;;;2584998;54;20778;31
2022/09/18 00:14:34;;;;;;;25.95;7.45;;;9.10;99.90;;;;;;2603138;46;20941;31
2022/09/18 00:17:10;;;;;;;42.75;12.25;;;9.10;99.90;;;;;;2603168;46;20977;31
2022/09/18 00:19:43;;;;;;;41.42;10.85;;;9.10;99.90;;;;;;2585277;54;21935;31
2022/09/18 00:22:17;;;;;;;28.55;9.85;;;9.00;99.90;;;;;;2584884;54;20995;31
2022/09/18 00:24:51;;;;;;;29.95;8.85;;;9.00;99.90;;;;;;2584902;54;21028;31
2022/09/18 00:27:25;;;;;;;26.17;7.22;;;9.00;99.90;;;;;;2584889;54;20813;31
2022/09/18 00:29:59;;;;;;;23.50;6.77;;;8.90;99.90;;;;;;2584642;54;20926;31
2022/09/18 00:32:35;;;;;;;13.45;3.05;;;8.90;99.90;;;;;;2603780;46;20771;31
2022/09/18 00:35:07;;;;;;;9.07;2.72;;;8.80;99.90;;;;;;2585250;54;20885;31
2022/09/18 00:37:42;;;;;;;8.20;3.13;;;8.80;99.90;;;;;;2584436;54;20916;31
2022/09/18 00:40:17;;;;;;;5.65;1.77;;;9.10;99.90;;;;;;2584993;54;20103;31
2022/09/18 00:42:49;;;;;;;5.67;1.93;;;8.90;99.90;;;;;;2584700;54;20094;31
2022/09/18 00:45:23;;;;;;;5.32;1.73;;;8.80;99.90;;;;;;2584411;54;20259;31
2022/09/18 00:47:59;;;;;;;5.07;1.30;;;9.10;99.90;;;;;;2584937;54;20938;31
2022/09/18 00:50:34;;;;;;;3.45;1.13;;;8.70;99.90;;;;;;2603490;46;20798;31
2022/09/18 00:53:08;;;;;;;7.38;1.45;;;8.90;99.90;;;;;;2585021;54;20022;31
2022/09/18 00:55:42;;;;;;;6.20;1.00;;;8.70;99.90;;;;;;2603296;46;20124;31
2022/09/18 00:58:16;;;;;;;3.10;1.00;;;8.90;99.90;;;;;;2584920;54;20151;31
2022/09/18 01:00:50;;;;;;;7.20;1.70;;;8.70;99.90;;;;;;2584870;54;20056;31
2022/09/18 01:03:27;;;;;;;4.35;1.40;;;8.80;99.90;;;;;;2584979;54;20028;31
2022/09/18 01:06:05;;;;;;;2.80;1.10;;;8.70;99.90;;;;;;2585147;54;21160;31
2022/09/18 01:08:43;;;;;;;4.80;1.20;;;8.60;99.90;;;;;;2584608;54;20034;31
2022/09/18 01:11:26;;;;;;;3.92;1.00;;;8.60;99.90;;;;;;2584944;54;20027;31
2022/09/18 01:14:05;;;;;;;6.25;1.38;;;8.60;99.90;;;;;;2603201;46;20042;31
2022/09/18 01:16:42;;;;;;;2.90;1.00;;;8.60;99.90;;;;;;2603396;47;20837;31
2022/09/18 01:19:27;;;;;;;6.27;1.00;;;8.60;99.90;;;;;;2584859;54;20919;31
2022/09/18 01:22:06;;;;;;;2.90;1.15;;;8.60;99.90;;;;;;2584940;54;20742;31
2022/09/18 01:24:39;;;;;;;6.37;1.13;;;8.50;99.90;;;;;;2584775;54;20927;31
2022/09/18 01:27:14;;;;;;;4.95;1.40;;;8.50;99.90;;;;;;2584926;54;21019;31
2022/09/18 01:29:54;;;;;;;4.53;1.20;;;8.50;99.90;;;;;;2602700;47;20863;31
2022/09/18 01:32:29;;;;;;;6.07;1.00;;;8.50;99.90;;;;;;2584663;54;20031;31
2022/09/18 01:35:04;;;;;;;9.05;1.25;;;8.50;99.90;;;;;;2584638;54;20302;31
2022/09/18 01:37:57;;;;;;;9.00;1.40;;;8.50;99.90;;;;;;2602857;47;20026;31
2022/09/18 01:40:31;;;;;;;3.30;0.80;;;8.50;99.90;;;;;;2584913;54;20038;31
2022/09/18 01:43:07;;;;;;;7.40;1.90;;;8.50;99.90;;;;;;2584719;54;21026;31
2022/09/18 01:45:46;;;;;;;4.60;0.80;;;8.50;99.90;;;;;;2584520;54;20057;31
2022/09/18 01:48:27;;;;;;;5.95;1.50;;;8.60;99.90;;;;;;2584999;54;21183;31
2022/09/18 01:51:06;;;;;;;5.13;1.20;;;8.60;99.90;;;;;;2584805;54;20795;31
2022/09/18 01:53:41;;;;;;;4.65;1.30;;;8.80;99.90;;;;;;2584709;54;20030;31
2022/09/18 01:56:15;;;;;;;4.05;1.00;;;8.70;99.90;;;;;;2584840;54;20895;31
2022/09/18 01:58:50;;;;;;;3.90;0.90;;;8.90;99.90;;;;;;2585384;54;21108;31
2022/09/18 02:01:29;;;;;;;3.00;0.90;;;8.70;99.90;;;;;;2603897;46;20033;31
2022/09/18 02:04:05;;;;;;;3.70;0.80;;;8.80;99.90;;;;;;2584962;54;20189;31
2022/09/18 02:06:40;;;;;;;3.07;0.70;;;8.80;99.90;;;;;;2585511;54;20030;31
2022/09/18 02:09:13;;;;;;;2.43;0.80;;;8.90;99.90;;;;;;2585354;54;20249;31
2022/09/18 02:11:49;;;;;;;3.17;0.75;;;8.90;99.90;;;;;;2585288;54;20089;31
2022/09/18 02:14:25;;;;;;;2.63;0.73;;;9.00;99.90;;;;;;2603825;46;20149;31
2022/09/18 02:17:11;;;;;;;5.15;0.70;;;9.00;99.90;;;;;;2585452;54;20266;31
2022/09/18 02:19:47;;;;;;;3.75;0.90;;;9.00;99.90;;;;;;2585605;54;20913;31
2022/09/18 02:22:23;;;;;;;1.65;0.85;;;9.00;99.90;;;;;;2585470;54;20937;31
2022/09/18 02:25:00;;;;;;;1.70;0.53;;;9.10;99.90;;;;;;2585109;54;20906;31
2022/09/18 02:27:33;;;;;;;2.42;0.55;;;9.10;99.90;;;;;;2585219;54;20022;31
2022/09/18 02:30:10;;;;;;;1.80;0.50;;;9.20;99.90;;;;;;2701676;39;21073;31
2022/09/18 02:32:46;;;;;;;;;;;9.20;99.90;;;;;;2585066;54;20934;31
2022/09/18 02:35:20;;;;;;;2.95;0.70;;;9.20;99.90;;;;;;2585269;54;20884;31
2022/09/18 02:37:57;;;;;;;2.85;0.40;;;9.30;99.90;;;;;;2585367;54;20983;31
2022/09/18 02:40:37;;;;;;;1.10;0.40;;;9.30;99.90;;;;;;2585328;54;20027;31
2022/09/18 02:43:20;;;;;;;2.30;0.53;;;9.30;99.90;;;;;;2584990;54;20146;31
2022/09/18 02:45:56;;;;;;;1.80;0.50;;;9.30;99.90;;;;;;2584869;54;20156;31
2022/09/18 02:48:39;;;;;;;;;;;9.40;99.90;;;;;;2604307;46;20930;31
2022/09/18 02:51:17;;;;;;;2.90;0.50;;;9.40;99.90;;;;;;2604040;46;19957;31
2022/09/18 02:53:56;;;;;;;1.73;0.22;;;9.50;99.90;;;;;;2603594;46;19934;31
2022/09/18 02:56:33;;;;;;;2.30;0.25;;;9.40;99.90;;;;;;2585212;54;20056;31
2022/09/18 02:59:10;;;;;;;2.20;0.40;;;9.40;99.90;;;;;;2584139;54;20983;31
2022/09/18 03:01:44;;;;;;;;;;;9.40;99.90;;;;;;2584472;54;20137;31
2022/09/18 03:04:25;;;;;;;1.13;0.37;;;9.50;99.90;;;;;;2584057;54;19993;31
2022/09/18 03:07:04;;;;;;;1.05;0.70;;;9.50;99.90;;;;;;2585124;54;20137;31
2022/09/18 03:09:47;;;;;;;1.20;0.30;;;9.50;99.90;;;;;;2584884;54;20257;31
2022/09/18 03:12:21;;;;;;;2.47;0.32;;;9.60;99.90;;;;;;2585329;54;21212;31
2022/09/18 03:15:00;;;;;;;1.85;0.30;;;9.60;99.90;;;;;;2585282;54;20057;31
2022/09/18 03:17:34;;;;;;;2.15;0.20;;;9.50;99.90;;;;;;2585403;54;20913;31
2022/09/18 03:20:07;;;;;;;2.55;0.30;;;9.50;99.90;;;;;;2584937;54;20027;31
2022/09/18 03:22:45;;;;;;;0.38;0.13;;;9.60;99.90;;;;;;2584988;54;20029;31
2022/09/18 03:25:18;;;;;;;1.95;0.20;;;9.60;99.90;;;;;;2585132;54;20784;31
2022/09/18 03:27:56;;;;;;;4.90;0.50;;;9.60;99.90;;;;;;2584919;54;20027;31
2022/09/18 03:30:40;;;;;;;1.33;0.20;;;9.60;99.90;;;;;;2603915;46;20875;31
2022/09/18 03:33:13;;;;;;;1.15;0.30;;;9.70;99.90;;;;;;2584860;54;19935;31
2022/09/18 03:35:49;;;;;;;1.40;0.30;;;9.60;99.90;;;;;;2585145;54;20830;31
2022/09/18 03:38:28;;;;;;;1.30;0.30;;;9.70;99.90;;;;;;2585277;54;20100;31
2022/09/18 03:41:03;;;;;;;0.60;0.20;;;9.70;99.90;;;;;;2585037;54;20917;31
2022/09/18 03:43:37;;;;;;;1.00;0.30;;;9.70;99.90;;;;;;2603374;46;20996;31
2022/09/18 03:46:12;;;;;;;2.88;1.15;;;9.70;99.90;;;;;;2585261;54;20026;31
2022/09/18 03:48:48;;;;;;;;;;;9.70;99.90;;;;;;2585439;54;20030;31
2022/09/18 03:51:26;;;;;;;1.00;0.20;;;9.70;99.90;;;;;;2603968;46;20004;31
2022/09/18 03:54:02;;;;;;;0.50;0.20;;;9.70;99.90;;;;;;2584203;54;20972;31
2022/09/18 03:56:54;;;;;;;2.78;0.30;;;9.80;99.90;;;;;;2584947;54;20849;31
2022/09/18 03:59:42;;;;;;;1.25;0.40;;;9.80;99.90;;;;;;2585003;54;20052;31
2022/09/18 04:02:33;;;;;;;1.70;0.40;;;9.90;99.90;;;;;;2584978;54;20022;31
2022/09/18 04:05:24;;;;;;;2.20;0.40;;;9.80;99.90;;;;;;2585043;54;20936;31
2022/09/18 04:08:34;;;;;;;1.90;0.40;;;9.80;99.90;;;;;;2584703;54;20895;31
2022/09/18 04:11:24;;;;;;;1.80;0.50;;;9.80;99.90;;;;;;2584979;54;20949;31
2022/09/18 04:13:56;;;;;;;;;;;9.80;99.90;;;;;;2585080;54;21323;31
2022/09/18 04:16:29;;;;;;;1.08;0.38;;;9.80;99.90;;;;;;2585076;54;19934;31
2022/09/18 04:19:03;;;;;;;1.00;0.30;;;9.80;99.90;;;;;;2584761;54;20942;31
2022/09/18 04:21:35;;;;;;;1.10;0.40;;;9.80;99.90;;;;;;2584526;54;20887;31
2022/09/18 04:24:09;;;;;;;1.23;0.40;;;9.80;99.90;;;;;;2602832;46;20027;31
2022/09/18 04:26:48;;;;;;;0.75;0.38;;;9.80;99.90;;;;;;2584967;54;20787;31
2022/09/18 04:29:26;;;;;;;2.63;0.45;;;9.80;99.90;;;;;;2584978;54;20816;31
2022/09/18 04:31:59;;;;;;;4.40;0.80;;;9.80;99.90;;;;;;2584678;54;21023;31
2022/09/18 04:34:32;;;;;;;1.70;0.50;;;9.80;99.90;;;;;;2585123;54;20040;31
2022/09/18 04:37:05;;;;;;;0.85;0.32;;;9.80;99.90;;;;;;2585073;54;20030;31
2022/09/18 04:39:45;;;;;;;1.10;0.50;;;9.80;99.90;;;;;;2584823;54;20800;31
2022/09/18 04:42:21;;;;;;;1.43;0.30;;;9.80;99.90;;;;;;2603550;46;21095;31
2022/09/18 04:44:56;;;;;;;3.13;0.80;;;9.80;99.90;;;;;;2603156;46;20986;31
2022/09/18 04:47:30;;;;;;;0.65;0.52;;;9.80;99.90;;;;;;2585089;54;20742;31
2022/09/18 04:50:03;;;;;;;0.93;0.50;;;9.90;99.90;;;;;;2584988;54;20042;31
2022/09/18 04:52:37;;;;;;;2.87;0.50;;;9.80;99.90;;;;;;2584951;54;20900;31
2022/09/18 04:55:10;;;;;;;1.08;0.40;;;9.80;99.90;;;;;;2584708;54;20769;31
2022/09/18 04:57:49;;;;;;;0.82;0.40;;;9.80;99.90;;;;;;2584916;54;20023;31
2022/09/18 05:00:27;;;;;;;1.73;0.50;;;9.80;99.90;;;;;;2584721;54;20038;31
2022/09/18 05:03:03;;;;;;;1.20;0.60;;;9.80;99.90;;;;;;2603340;46;20916;31
2022/09/18 05:05:38;;;;;;;0.90;0.70;;;9.80;99.90;;;;;;2584998;54;20030;31
2022/09/18 05:08:11;;;;;;;3.53;0.73;;;9.80;99.90;;;;;;2584548;54;21577;31
2022/09/18 05:10:44;;;;;;;4.57;0.93;;;9.80;99.90;;;;;;2603018;46;21958;31
2022/09/18 05:13:23;;;;;;;3.03;0.90;;;9.80;99.90;;;;;;2584902;54;20784;31
2022/09/18 05:16:09;;;;;;;2.63;0.60;;;9.80;99.90;;;;;;2584872;54;21042;31
2022/09/18 05:18:42;;;;;;;2.00;1.10;;;9.80;99.90;;;;;;2584568;54;20256;31
2022/09/18 05:21:17;;;;;;;2.95;1.48;;;9.80;99.90;;;;;;2584666;54;21037;31
2022/09/18 05:23:50;;;;;;;4.40;1.45;;;9.90;99.90;;;;;;2584395;54;20892;31
2022/09/18 05:26:22;;;;;;;4.53;1.47;;;9.90;99.90;;;;;;2583835;54;20030;31
2022/09/18 05:28:58;;;;;;;3.22;1.27;;;9.90;99.90;;;;;;2584812;54;20243;31
2022/09/18 05:31:34;;;;;;;2.25;1.25;;;10.00;99.90;;;;;;2584890;54;20026;31
2022/09/18 05:34:07;;;;;;;2.95;1.35;;;10.00;99.90;;;;;;2585596;54;20952;31
2022/09/18 05:36:41;;;;;;;3.00;1.40;;;10.00;99.90;;;;;;2584957;54;20857;31
2022/09/18 05:39:18;;;;;;;3.67;1.50;;;10.00;99.90;;;;;;2584525;54;20030;31
2022/09/18 05:41:55;;;;;;;2.25;1.30;;;10.10;99.90;;;;;;2603918;46;20053;31
2022/09/18 05:44:32;;;;;;;1.67;1.30;;;10.10;99.90;;;;;;2585328;54;21621;31
2022/09/18 05:47:06;;;;;;;2.30;1.05;;;10.10;99.90;;;;;;2585334;54;20026;31
2022/09/18 05:49:42;;;;;;;2.85;1.10;;;10.10;99.90;;;;;;2682884;39;21370;31
2022/09/18 05:52:19;;;;;;;2.28;1.27;;;10.20;99.90;;;;;;2585506;54;20824;31
2022/09/18 05:54:53;;;;;;;0.90;0.60;;;10.20;99.90;;;;;;2585415;54;20914;31
2022/09/18 05:57:29;;;;;;;2.37;1.00;;;10.10;99.90;;;;;;2683261;39;21410;31
2022/09/18 06:00:04;;;;;;;1.05;0.70;;;10.20;99.90;;;;;;2584498;54;20899;31
2022/09/18 06:02:39;;;;;;;2.90;1.00;;;10.20;99.90;;;;;;2584624;54;20955;31
2022/09/18 06:05:17;;;;;;;1.48;0.90;;;10.30;99.90;;;;;;2585227;54;20779;31
2022/09/18 06:07:51;;;;;;;1.67;1.20;;;10.30;99.90;;;;;;2585354;54;20034;31
2022/09/18 06:10:31;;;;;;;1.30;0.85;;;10.30;99.90;;;;;;2585246;54;19934;31
2022/09/18 06:13:07;;;;;;;1.50;0.80;;;10.40;99.90;;;;;;2585404;54;20061;31
2022/09/18 06:15:53;;;;;;;2.07;1.17;;;10.50;99.90;;;;;;2604101;46;21478;31
2022/09/18 06:18:39;;;;;;;1.55;1.15;;;10.50;99.90;;;;;;2604153;46;21852;31
2022/09/18 06:21:13;;;;;;;;;;;10.50;99.90;;;;;;2585601;54;20022;31
2022/09/18 06:23:49;;;;;;;4.73;1.63;;;10.60;99.90;;;;;;2584659;54;19942;31
2022/09/18 06:26:30;;;;;;;3.65;1.33;;;10.60;99.90;;;;;;2603989;46;20086;31
2022/09/18 06:29:05;;;;;;;3.05;1.20;;;10.60;99.90;;;;;;2584568;54;20037;31
2022/09/18 06:31:53;;;;;;;3.50;1.30;;;10.60;99.90;;;;;;2585234;54;20026;31
2022/09/18 06:34:30;;;;;;;2.90;1.98;;;10.70;99.90;;;;;;2590290;46;20773;31
2022/09/18 06:37:11;;;;;;;5.10;2.33;;;10.70;99.90;;;;;;2603342;46;20804;31
2022/09/18 06:40:06;;;;;;;4.22;2.28;;;10.70;99.90;;;;;;2603848;46;20027;31
2022/09/18 06:42:58;;;;;;;3.38;1.60;;;10.70;99.90;;;;;;2585076;54;20082;31
2022/09/18 06:45:59;;;;;;;4.75;2.20;;;11.10;99.90;;;;;;2585117;54;20914;31
2022/09/18 06:48:44;;;;;;;1.88;1.73;;;10.70;99.90;;;;;;2585298;54;20976;31
2022/09/18 06:51:19;;;;;;;1.80;1.50;;;10.70;99.90;;;;;;2603738;46;20026;31
2022/09/18 06:54:17;;;;;;;3.60;1.70;;;10.70;99.90;;;;;;2585169;54;20030;31
2022/09/18 06:56:51;;;;;;;2.42;1.48;;;10.70;99.90;;;;;;2603672;46;20026;31
2022/09/18 06:59:39;;;;;;;2.20;1.70;;;10.50;99.90;;;;;;2585089;54;20955;31
2022/09/18 07:02:16;;;;;;;2.47;1.60;;;10.70;99.90;;;;;;2584382;54;20902;31
2022/09/18 07:05:02;;;;;;;2.00;1.80;;;10.70;99.90;;;;;;2603829;46;20875;31
2022/09/18 07:07:44;;;;;;;3.80;2.67;;;10.60;99.90;;;;;;2585240;54;21242;31
2022/09/18 07:10:23;;;;;;;3.45;2.90;;;10.60;99.90;;;;;;2585079;54;20848;31
2022/09/18 07:12:58;;;;;;;5.30;3.25;;;10.60;99.90;;;;;;2585221;54;20924;31
2022/09/18 07:15:35;;;;;;;3.60;3.30;;;10.60;99.90;;;;;;2585239;54;20991;31
2022/09/18 07:18:12;;;;;;;3.63;2.90;;;11.00;99.90;;;;;;2584962;54;20919;31
2022/09/18 07:20:50;;;;;;;4.60;3.90;;;10.60;99.90;;;;;;2584366;54;21055;31
2022/09/18 07:23:37;;;;;;;5.47;3.53;;;10.60;99.90;;;;;;2585286;54;20759;31
2022/09/18 07:26:13;;;;;;;4.60;4.10;;;10.70;99.90;;;;;;2585225;54;20034;31
2022/09/18 07:28:46;;;;;;;4.05;3.42;;;10.70;99.90;;;;;;2584383;54;20790;31
2022/09/18 07:31:34;;;;;;;4.28;3.17;;;10.70;99.90;;;;;;2585279;54;20031;31
2022/09/18 07:34:11;;;;;;;5.13;3.83;;;10.80;99.90;;;;;;2585177;54;20033;31
2022/09/18 07:36:51;;;;;;;4.63;3.92;;;10.80;99.90;;;;;;2603596;46;21006;31
2022/09/18 07:39:24;;;;;;;5.20;3.80;;;10.90;99.90;;;;;;2603035;46;19946;31
2022/09/18 07:42:20;;;;;;;5.65;3.58;;;10.90;99.90;;;;;;2584772;54;20027;31
2022/09/18 07:45:00;;;;;;;3.75;3.00;;;11.00;99.90;;;;;;2603737;46;20972;31
2022/09/18 07:47:37;;;;;;;3.17;2.40;;;11.10;99.90;;;;;;2585241;54;20037;31
2022/09/18 07:50:14;;;;;;;4.15;2.85;;;11.20;99.90;;;;;;2585202;54;20891;31
2022/09/18 07:52:55;;;;;;;3.10;2.65;;;11.40;99.90;;;;;;2585382;54;20185;31
2022/09/18 07:55:37;;;;;;;2.75;2.55;;;11.50;99.90;;;;;;2585295;54;20969;31
2022/09/18 07:58:12;;;;;;;3.53;2.35;;;11.70;99.90;;;;;;2585397;54;20969;31
2022/09/18 08:01:09;;;;;;;1.83;1.35;;;12.30;99.90;;;;;;2584968;54;20912;31
2022/09/18 08:03:51;;;;;;;1.58;1.48;;;12.20;99.90;;;;;;2585320;54;20934;31
2022/09/18 08:06:27;;;;;;;4.03;1.52;;;12.30;99.90;;;;;;2585272;54;20875;31
2022/09/18 08:09:33;;;;;;;1.60;1.50;;;12.30;99.90;;;;;;2584802;54;20085;31
2022/09/18 08:12:28;;;;;;;1.70;1.60;;;12.30;99.90;;;;;;2585172;54;20065;31
2022/09/18 08:15:27;;;;;;;1.75;1.50;;;12.80;99.90;;;;;;2585213;54;20049;31
2022/09/18 08:18:22;;;;;;;1.80;0.80;;;12.20;99.90;;;;;;2584944;54;20063;31
2022/09/18 08:21:06;;;;;;;1.90;0.70;;;12.20;99.90;;;;;;2585237;54;20062;31
2022/09/18 08:23:51;;;;;;;2.72;0.80;;;12.10;99.90;;;;;;2585345;54;20998;31
2022/09/18 08:26:30;;;;;;;1.15;1.00;;;12.20;99.90;;;;;;2585316;54;20962;31
2022/09/18 08:29:08;;;;;;;1.10;0.85;;;12.30;99.90;;;;;;2683399;39;22410;31
2022/09/18 08:31:41;;;;;;;0.95;0.80;;;12.00;99.90;;;;;;2585146;54;20026;31
2022/09/18 08:34:15;;;;;;;1.10;0.75;;;12.00;99.90;;;;;;2603245;46;20026;31
2022/09/18 08:36:55;;;;;;;0.60;0.40;;;12.00;99.90;;;;;;2584955;54;20149;31
2022/09/18 08:39:38;;;;;;;3.05;1.00;;;11.90;99.90;;;;;;2584948;54;20794;31
2022/09/18 08:42:28;;;;;;;3.67;1.60;;;11.90;99.90;;;;;;2585017;54;20081;31
2022/09/18 08:45:09;;;;;;;2.17;0.70;;;11.90;99.90;;;;;;2585097;54;20022;31
2022/09/18 08:47:49;;;;;;;2.00;0.70;;;11.80;99.90;;;;;;2585047;54;20023;31
2022/09/18 08:50:25;;;;;;;0.93;0.45;;;11.80;99.90;;;;;;2584807;54;20023;31
2022/09/18 08:53:05;;;;;;;3.03;1.00;;;11.70;99.90;;;;;;2585074;54;20029;31
2022/09/18 08:55:53;;;;;;;1.90;0.80;;;12.20;99.90;;;;;;2585195;54;20141;31
2022/09/18 08:58:45;;;;;;;1.95;0.70;;;11.50;99.90;;;;;;2584858;54;20385;31
2022/09/18 09:01:22;;;;;;;1.30;0.70;;;11.50;99.90;;;;;;2584946;54;20096;31
2022/09/18 09:04:12;;;;;;;1.20;0.60;;;11.40;99.90;;;;;;2584738;54;20899;31
2022/09/18 09:06:51;;;;;;;;;;;11.30;99.90;;;;;;2584830;54;20048;31
2022/09/18 09:09:48;;;;;;;3.03;0.77;;;11.40;99.90;;;;;;2584826;54;19968;31
2022/09/18 09:12:27;;;;;;;1.73;0.70;;;11.30;99.90;;;;;;2583994;54;20033;31
2022/09/18 09:15:18;;;;;;;1.00;0.70;;;11.30;99.90;;;;;;2584820;54;20030;31
2022/09/18 09:17:59;;;;;;;1.57;0.70;;;11.30;99.90;;;;;;2584757;54;20023;31
2022/09/18 09:20:44;;;;;;;1.83;0.80;;;11.30;99.90;;;;;;2583925;54;20023;31
2022/09/18 09:23:21;;;;;;;0.80;0.70;;;10.80;99.90;;;;;;2590497;47;20097;31
2022/09/18 09:26:02;;;;;;;3.57;0.73;;;11.10;99.90;;;;;;2584777;54;20027;31
2022/09/18 09:28:58;;;;;;;3.22;0.90;;;11.10;99.90;;;;;;2584844;54;20245;31
2022/09/18 09:32:06;;;;;;;1.85;0.73;;;11.10;99.90;;;;;;2584651;54;20034;31
2022/09/18 09:35:22;;;;;;;3.08;0.80;;;11.10;99.90;;;;;;2584444;54;20105;31
2022/09/18 09:38:31;;;;;;;1.42;0.60;;;11.10;99.90;;;;;;2584678;54;20042;31
2022/09/18 09:41:09;;;;;;;2.97;0.80;;;11.10;99.90;;;;;;2584675;54;20033;31
2022/09/18 09:43:45;;;;;;;4.40;1.00;;;11.10;99.90;;;;;;2584724;54;21296;31
2022/09/18 09:46:23;;;;;;;5.72;0.50;;;11.20;99.90;;;;;;2584557;54;20031;31
2022/09/18 09:49:03;;;;;;;3.60;0.90;;;11.10;99.90;;;;;;2583626;54;20050;31
2022/09/18 09:51:41;;;;;;;3.97;0.80;;;11.20;99.90;;;;;;2584586;54;20030;31
2022/09/18 09:54:18;;;;;;;3.35;0.80;;;11.20;99.90;;;;;;2584386;54;20835;31
2022/09/18 09:56:55;;;;;;;4.80;0.77;;;11.10;99.90;;;;;;2584693;54;20030;31
2022/09/18 09:59:33;;;;;;;5.00;1.17;;;11.10;99.90;;;;;;2584702;54;20026;31
2022/09/18 10:02:37;;;;;;;1.15;0.60;;;11.30;99.90;;;;;;2584777;54;20026;31
2022/09/18 10:05:20;;;;;;;2.20;0.90;;;11.10;99.90;;;;;;2584672;54;20937;31
2022/09/18 10:07:58;;;;;;;4.05;1.00;;;11.10;99.90;;;;;;2584476;54;21011;31
2022/09/18 10:10:33;;;;;;;2.42;0.60;;;11.10;99.90;;;;;;2584427;54;21063;31
2022/09/18 10:13:12;;;;;;;4.50;0.93;;;11.00;99.90;;;;;;2584811;54;20938;31
2022/09/18 10:15:46;;;;;;;2.80;0.80;;;11.20;99.90;;;;;;2701107;39;21219;31
2022/09/18 10:18:29;;;;;;;8.27;1.30;;;11.00;99.90;;;;;;2584921;54;20042;31
2022/09/18 10:21:09;;;;;;;4.47;1.50;;;11.00;99.90;;;;;;2585419;54;20048;31
2022/09/18 10:23:44;;;;;;;2.40;1.10;;;11.00;99.90;;;;;;2585000;54;20081;31
2022/09/18 10:26:22;;;;;;;6.03;1.13;;;11.10;99.90;;;;;;2763145;31;20077;31
2022/09/18 10:28:54;;;;;;;3.80;1.10;;;11.10;99.90;;;;;;2585212;54;20014;31
2022/09/18 10:31:28;;;;;;;6.32;1.95;;;11.10;99.90;;;;;;2585712;54;21972;31
2022/09/18 10:34:03;;;;;;;7.43;2.33;;;11.10;99.90;;;;;;2585228;54;21681;31
2022/09/18 10:36:41;;;;;;;7.35;2.30;;;11.10;99.90;;;;;;2585365;54;20971;31
2022/09/18 10:39:33;;;;;;;7.25;3.00;;;11.10;99.90;;;;;;2585473;54;20880;31
2022/09/18 10:42:16;;;;;;;7.22;2.25;;;11.10;99.90;;;;;;2603947;46;20051;31
2022/09/18 10:44:52;;;;;;;9.02;2.67;;;11.10;99.90;;;;;;2585202;54;20827;31
2022/09/18 10:47:34;;;;;;;11.75;2.70;;;11.10;99.90;;;;;;2585307;54;20950;31
2022/09/18 10:50:17;;;;;;;10.00;2.95;;;11.20;99.90;;;;;;2585500;54;20132;31
2022/09/18 10:52:56;;;;;;;12.23;3.67;;;11.20;99.90;;;;;;2585414;54;20121;31
2022/09/18 10:55:37;;;;;;;9.23;2.88;;;11.30;99.90;;;;;;2585338;54;20968;31
2022/09/18 10:58:15;;;;;;;10.15;3.05;;;11.30;99.90;;;;;;2590599;46;20045;31
2022/09/18 11:00:58;;;;;;;14.90;4.15;;;11.30;99.90;;;;;;2584219;54;20056;31
2022/09/18 11:03:42;;;;;;;9.65;4.05;;;11.30;99.90;;;;;;2584369;54;20033;31
2022/09/18 11:06:22;;;;;;;11.70;4.10;;;11.40;99.90;;;;;;2585599;54;21943;31
2022/09/18 11:09:01;;;;;;;;;;;11.40;99.90;;;;;;2585533;54;20861;31
2022/09/18 11:11:39;;;;;;;9.97;3.73;;;11.50;99.90;;;;;;2604160;46;19934;31
2022/09/18 11:14:25;;;;;;;14.23;4.55;;;11.50;99.90;;;;;;2591881;46;20030;31
2022/09/18 11:17:05;;;;;;;10.65;3.30;;;11.40;99.90;;;;;;2585392;54;20033;31
2022/09/18 11:19:52;;;;;;;8.40;3.60;;;11.40;99.90;;;;;;2603727;46;20027;31
2022/09/18 11:25:26;;;;;;;11.70;3.80;;;11.20;99.90;;;;;;2604056;46;20254;31
2022/09/18 11:28:23;;;;;;;15.05;4.40;;;11.30;99.90;;;;;;2603513;46;20900;31
2022/09/18 11:31:02;;;;;;;17.15;4.75;;;11.30;99.90;;;;;;2585018;54;20876;31
2022/09/18 11:33:39;;;;;;;11.38;3.92;;;11.40;99.90;;;;;;2585346;54;20973;31
2022/09/18 11:36:15;;;;;;;11.00;3.43;;;11.50;99.90;;;;;;2585012;54;20947;31
2022/09/18 11:38:46;;;;;;;10.50;3.20;;;11.60;99.90;;;;;;2584816;54;20918;31
2022/09/18 11:41:31;;;;;;;19.70;4.00;;;11.70;99.90;;;;;;2585224;54;20794;31
2022/09/18 11:44:06;;;;;;;12.70;4.13;;;11.70;99.90;;;;;;2603429;46;20803;31
2022/09/18 11:46:39;;;;;;;7.40;2.72;;;11.80;99.90;;;;;;2603775;46;20030;31
2022/09/18 11:49:16;;;;;;;10.00;3.60;;;11.70;99.90;;;;;;2585280;54;20818;31
2022/09/18 11:51:51;;;;;;;10.30;3.10;;;11.80;99.90;;;;;;2585204;54;20057;31
2022/09/18 11:54:30;;;;;;;12.20;3.80;;;11.70;99.90;;;;;;2603936;46;20921;31
2022/09/18 11:57:03;;;;;;;12.50;3.70;;;11.80;99.90;;;;;;2585433;54;20998;31
2022/09/18 11:59:43;;;;;;;13.80;3.65;;;11.80;99.90;;;;;;2603756;46;20866;31
2022/09/18 12:02:21;;;;;;;14.30;3.30;;;11.80;99.90;;;;;;2603890;46;20785;31
2022/09/18 12:04:54;;;;;;;13.60;3.40;;;11.90;99.90;;;;;;2603575;46;20812;31
2022/09/18 12:07:32;;;;;;;9.48;2.80;;;12.00;99.90;;;;;;2585096;54;20915;31
2022/09/18 12:10:18;;;;;;;10.95;3.30;;;12.00;99.90;;;;;;2603718;46;20898;31
2022/09/18 12:12:54;;;;;;;13.02;3.17;;;12.10;99.90;;;;;;2585158;54;20042;31
2022/09/18 12:15:31;;;;;;;9.43;2.72;;;12.20;99.90;;;;;;2585233;54;20117;31
2022/09/18 12:18:11;;;;;;;10.50;2.77;;;12.20;99.90;;;;;;2585348;54;20026;31
2022/09/18 12:20:55;;;;;;;9.05;3.40;;;12.30;99.90;;;;;;2585409;54;20915;31
2022/09/18 12:23:32;;;;;;;10.43;3.08;;;12.50;99.90;;;;;;2585122;54;21071;31
2022/09/18 12:26:14;;;;;;;13.00;3.22;;;12.50;99.90;;;;;;2585484;54;21116;31
2022/09/18 12:29:11;;;;;;;11.45;3.00;;;12.60;99.90;;;;;;2584379;54;20876;31
2022/09/18 12:31:53;;;;;;;11.25;3.20;;;12.70;99.90;;;;;;2585337;54;20037;31
2022/09/18 12:34:31;;;;;;;8.75;3.15;;;12.90;99.90;;;;;;2603898;46;20948;31
2022/09/18 12:37:10;;;;;;;9.02;3.10;;;13.00;99.90;;;;;;2585065;54;20030;31
2022/09/18 12:40:07;;;;;;;11.63;2.80;;;13.20;99.90;;;;;;2585338;54;20729;31
2022/09/18 12:42:44;;;;;;;7.45;2.33;;;13.30;99.90;;;;;;2683466;39;22335;31
2022/09/18 12:46:14;;;;;;;8.43;2.60;;;13.40;99.90;;;;;;2584561;54;20042;31
2022/09/18 12:49:16;;;;;;;12.03;2.63;;;13.50;99.90;;;;;;2584979;54;20026;31
2022/09/18 12:51:54;;;;;;;10.70;2.50;;;13.60;99.90;;;;;;2585220;54;20912;31
2022/09/18 12:54:26;;;;;;;12.10;2.40;;;13.60;99.90;;;;;;2604222;46;20923;31
2022/09/18 12:57:11;;;;;;;9.80;2.07;;;13.70;99.90;;;;;;2585390;54;20812;31
2022/09/18 12:59:53;;;;;;;10.00;2.05;;;13.70;99.90;;;;;;2584988;54;20084;31
2022/09/18 13:02:45;;;;;;;10.30;2.23;;;13.70;99.90;;;;;;2585031;54;20044;31
2022/09/18 13:05:26;;;;;;;;;;;13.80;99.90;;;;;;2585357;54;20877;31
2022/09/18 13:08:05;;;;;;;9.15;1.55;;;13.80;99.90;;;;;;2603559;46;19934;31
2022/09/18 13:10:40;;;;;;;5.32;1.17;;;13.70;99.90;;;;;;2585346;54;20050;31
2022/09/18 13:13:17;;;;;;;6.55;1.30;;;13.70;99.90;;;;;;2585356;54;20018;31
2022/09/18 13:15:58;;;;;;;7.97;1.38;;;13.80;99.90;;;;;;2683143;39;21137;31
2022/09/18 13:18:36;;;;;;;8.63;1.40;;;13.80;99.90;;;;;;2585305;54;20948;31
2022/09/18 13:21:19;;;;;;;5.25;1.00;;;13.90;99.90;;;;;;2683393;39;22319;31
2022/09/18 13:23:54;;;;;;;7.05;1.25;;;13.90;99.90;;;;;;2585102;54;20948;31
2022/09/18 13:26:30;;;;;;;10.00;1.40;;;13.80;99.90;;;;;;2603856;47;20022;31
2022/09/18 13:29:03;;;;;;;6.57;1.73;;;13.80;99.90;;;;;;2585310;54;22495;31
2022/09/18 13:31:38;;;;;;;8.25;1.35;;;13.80;99.90;;;;;;2585363;54;20883;31
2022/09/18 13:34:18;;;;;;;9.95;1.75;;;13.80;99.90;;;;;;2585354;54;20033;31
2022/09/18 13:36:55;;;;;;;6.10;2.10;;;13.80;99.90;;;;;;2585418;54;20030;31
2022/09/18 13:39:31;;;;;;;5.63;1.17;;;13.70;99.90;;;;;;2584145;54;20151;31
2022/09/18 13:42:31;;;;;;;8.25;1.60;;;13.50;99.90;;;;;;2585434;54;20890;31
2022/09/18 13:45:15;;;;;;;8.80;3.83;;;13.50;99.90;;;;;;2585020;54;20145;31
2022/09/18 13:48:04;;;;;;;5.70;1.30;;;13.40;99.90;;;;;;2603594;47;20910;31
2022/09/18 13:50:39;;;;;;;5.55;1.60;;;13.30;99.90;;;;;;2585028;54;20045;31
2022/09/18 13:53:32;;;;;;;5.90;1.40;;;13.30;99.90;;;;;;2585487;54;21003;31
2022/09/18 13:56:07;;;;;;;4.17;0.87;;;13.20;99.90;;;;;;2585994;54;19934;31
2022/09/18 13:58:53;;;;;;;2.30;0.60;;;13.10;99.90;;;;;;2604656;46;21089;31
2022/09/18 14:02:01;;;;;;;5.82;0.85;;;13.10;99.90;;;;;;2586192;54;22438;31
2022/09/18 14:05:11;;;;;;;7.57;0.60;;;13.10;99.90;;;;;;2603874;46;20921;31
2022/09/18 14:08:37;;;;;;;9.80;2.80;;;13.20;99.90;;;;;;2684151;39;22376;31
2022/09/18 14:11:10;;;;;;;3.72;0.95;;;13.40;99.90;;;;;;2585413;54;20037;31
2022/09/18 14:13:50;;;;;;;4.97;0.87;;;13.50;99.90;;;;;;2585836;54;20775;31